createdAt,value
2022-08-07T00:00:25.576Z,21.55
2022-08-07T00:02:53.701Z,21.45
2022-08-07T00:05:23.477Z,21.47
2022-08-07T00:07:59.838Z,21.37
2022-08-07T00:10:30.605Z,21.25
2022-08-07T00:13:01.755Z,21.22
2022-08-07T00:15:38.123Z,21.24
2022-08-07T00:18:19.538Z,21.26
2022-08-07T00:20:49.594Z,21.22
2022-08-07T00:23:17.069Z,21.21
2022-08-07T00:25:45.991Z,21.13
2022-08-07T00:28:33.331Z,21.13
2022-08-07T00:31:12.368Z,21.09
2022-08-07T00:33:40.664Z,21.01
2022-08-07T00:36:08.555Z,21.01
2022-08-07T00:38:36.892Z,20.99
2022-08-07T00:41:10.118Z,20.98
2022-08-07T00:44:01.016Z,20.90
2022-08-07T00:46:30.129Z,20.86
2022-08-07T00:49:02.154Z,20.82
2022-08-07T00:51:58.472Z,20.76
2022-08-07T00:54:19.655Z,20.66
2022-08-07T00:56:49.587Z,20.63
2022-08-07T00:59:17.580Z,20.57
2022-08-07T01:01:48.646Z,20.71
2022-08-07T01:04:21.674Z,20.68
2022-08-07T01:06:51.720Z,20.58
2022-08-07T01:10:06.557Z,20.51
2022-08-07T01:12:27.885Z,20.51
2022-08-07T01:14:57.121Z,20.59
2022-08-07T01:17:29.463Z,20.54
2022-08-07T01:20:08.058Z,20.42
2022-08-07T01:22:36.601Z,20.35
2022-08-07T01:25:20.771Z,20.30
2022-08-07T01:27:51.357Z,20.26
2022-08-07T01:30:18.966Z,20.29
2022-08-07T01:32:45.702Z,20.28
2022-08-07T01:35:12.937Z,20.28
2022-08-07T01:37:43.916Z,20.15
2022-08-07T01:40:14.816Z,20.07
2022-08-07T01:42:58.847Z,20.02
2022-08-07T01:45:36.359Z,19.95
2022-08-07T01:48:20.585Z,19.83
2022-08-07T01:50:55.777Z,19.85
2022-08-07T01:54:11.582Z,19.85
2022-08-07T01:56:13.277Z,19.80
2022-08-07T01:58:45.192Z,19.74
2022-08-07T02:01:37.689Z,19.67
2022-08-07T02:04:08.108Z,19.63
2022-08-07T02:06:36.112Z,19.70
2022-08-07T02:09:04.606Z,19.70
2022-08-07T02:12:03.645Z,19.69
2022-08-07T02:14:36.277Z,19.58
2022-08-07T02:17:08.473Z,19.54
2022-08-07T02:20:06.975Z,19.50
2022-08-07T02:22:25.759Z,19.46
2022-08-07T02:24:54.695Z,19.48
2022-08-07T02:27:23.084Z,19.50
2022-08-07T02:29:54.633Z,19.39
2022-08-07T02:32:23.277Z,19.32
2022-08-07T02:34:51.505Z,19.26
2022-08-07T02:37:18.883Z,19.17
2022-08-07T02:40:02.119Z,19.17
2022-08-07T02:42:34.002Z,19.21
2022-08-07T02:45:07.211Z,19.27
2022-08-07T02:47:49.227Z,19.25
2022-08-07T02:50:18.423Z,19.16
2022-08-07T02:52:53.389Z,19.05
2022-08-07T02:56:03.128Z,18.96
2022-08-07T02:58:21.557Z,18.94
2022-08-07T03:00:50.514Z,19.01
2022-08-07T03:03:22.563Z,19.00
2022-08-07T03:05:53.586Z,18.93
2022-08-07T03:08:29.156Z,18.82
2022-08-07T03:10:57.650Z,18.75
2022-08-07T03:13:24.735Z,18.73
2022-08-07T03:15:56.309Z,18.75
2022-08-07T03:18:34.295Z,18.76
2022-08-07T03:21:03.490Z,18.80
2022-08-07T03:23:33.804Z,18.74
2022-08-07T03:26:21.218Z,18.64
2022-08-07T03:28:51.804Z,18.68
2022-08-07T03:31:23.730Z,18.70
2022-08-07T03:33:56.399Z,18.70
2022-08-07T03:36:25.952Z,18.72
2022-08-07T03:38:58.082Z,18.67
2022-08-07T03:41:42.525Z,18.75
2022-08-07T03:44:15.348Z,18.68
2022-08-07T03:47:10.824Z,18.73
2022-08-07T03:49:30.754Z,18.79
2022-08-07T03:52:01.828Z,18.82
2022-08-07T03:54:36.366Z,18.79
2022-08-07T03:58:33.181Z,18.79
2022-08-07T04:00:05.511Z,18.86
2022-08-07T04:02:33.181Z,18.87
2022-08-07T04:04:59.987Z,18.73
2022-08-07T04:07:41.669Z,18.61
2022-08-07T04:10:15.713Z,18.59
2022-08-07T04:12:47.454Z,18.64
2022-08-07T04:15:16.070Z,18.56
2022-08-07T04:18:57.462Z,18.51
2022-08-07T04:20:32.402Z,18.53
2022-08-07T04:23:06.301Z,18.47
2022-08-07T04:25:39.205Z,18.51
2022-08-07T04:28:13.263Z,18.55
2022-08-07T04:30:55.467Z,18.63
2022-08-07T04:33:27.055Z,18.60
2022-08-07T04:35:55.115Z,18.67
2022-08-07T04:38:22.530Z,18.74
2022-08-07T04:40:51.722Z,18.85
2022-08-07T04:44:09.565Z,18.79
2022-08-07T04:46:29.253Z,18.80
2022-08-07T04:49:17.997Z,18.97
2022-08-07T04:52:25.065Z,19.08
2022-08-07T04:58:07.974Z,19.00
2022-08-07T04:59:17.536Z,19.05
2022-08-07T05:02:02.126Z,19.11
2022-08-07T05:04:36.147Z,19.19
2022-08-07T05:07:30.672Z,19.32
2022-08-07T05:10:33.227Z,19.33
2022-08-07T05:14:53.044Z,19.45
2022-08-07T05:16:04.745Z,19.60
2022-08-07T05:18:35.523Z,19.58
2022-08-07T05:21:13.017Z,19.66
2022-08-07T05:23:49.837Z,19.72
2022-08-07T05:26:23.952Z,19.77
2022-08-07T05:28:57.392Z,19.83
2022-08-07T05:31:35.088Z,20.01
2022-08-07T05:34:11.424Z,20.18
2022-08-07T05:36:53.002Z,20.29
2022-08-07T05:40:14.345Z,20.33
2022-08-07T05:42:12.338Z,20.27
2022-08-07T05:44:46.624Z,20.28
2022-08-07T05:47:38.108Z,20.38
2022-08-07T05:50:16.876Z,20.39
2022-08-07T05:52:43.681Z,20.41
2022-08-07T05:55:11.550Z,20.53
2022-08-07T05:57:43.030Z,20.65
2022-08-07T06:00:16.084Z,20.75
2022-08-07T06:02:45.200Z,20.79
2022-08-07T06:05:15.890Z,20.86
2022-08-07T06:08:14.571Z,20.92
2022-08-07T06:10:29.479Z,21.00
2022-08-07T06:12:56.382Z,21.15
2022-08-07T06:15:39.091Z,21.26
2022-08-07T06:18:09.867Z,21.41
2022-08-07T06:20:51.127Z,21.56
2022-08-07T06:24:38.625Z,21.72
2022-08-07T06:26:15.667Z,21.86
2022-08-07T06:29:11.723Z,22.01
2022-08-07T06:31:49.817Z,22.05
2022-08-07T06:34:19.609Z,22.13
2022-08-07T06:36:47.258Z,22.27
2022-08-07T06:40:17.060Z,22.37
2022-08-07T06:42:04.217Z,22.41
2022-08-07T06:44:34.032Z,22.50
2022-08-07T06:47:10.611Z,22.60
2022-08-07T06:49:52.135Z,22.72
2022-08-07T06:52:31.918Z,22.82
2022-08-07T06:55:34.339Z,22.98
2022-08-07T06:57:56.870Z,23.10
2022-08-07T07:00:24.786Z,23.23
2022-08-07T07:02:54.193Z,23.95
2022-08-07T07:06:03.164Z,24.44
2022-08-07T07:08:18.532Z,24.72
2022-08-07T07:10:56.652Z,24.99
2022-08-07T07:13:58.458Z,25.11
2022-08-07T07:16:39.166Z,25.37
2022-08-07T07:19:57.179Z,25.50
2022-08-07T07:22:34.480Z,25.64
2022-08-07T07:26:31.084Z,25.73
2022-08-07T07:28:03.505Z,25.95
2022-08-07T07:30:40.024Z,26.04
2022-08-07T07:33:13.683Z,26.09
2022-08-07T07:36:04.042Z,26.22
2022-08-07T07:38:34.975Z,26.37
2022-08-07T07:41:08.606Z,26.48
2022-08-07T07:44:14.158Z,26.53
2022-08-07T07:46:40.465Z,26.61
2022-08-07T07:50:33.099Z,26.77
2022-08-07T07:52:07.651Z,26.87
2022-08-07T07:54:37.135Z,26.99
2022-08-07T07:57:06.792Z,27.09
2022-08-07T07:59:52.422Z,27.29
2022-08-07T08:02:34.292Z,27.30
2022-08-07T08:05:14.430Z,27.46
2022-08-07T08:07:51.430Z,27.48
2022-08-07T08:10:37.787Z,27.52
2022-08-07T08:13:10.619Z,27.58
2022-08-07T08:15:58.774Z,27.76
2022-08-07T08:18:28.544Z,27.98
2022-08-07T08:20:59.326Z,27.98
2022-08-07T08:23:47.465Z,28.15
2022-08-07T08:26:34.841Z,28.17
2022-08-07T08:29:03.872Z,28.11
2022-08-07T08:32:18.190Z,28.18
2022-08-07T08:34:27.028Z,28.34
2022-08-07T08:36:58.492Z,28.48
2022-08-07T08:39:39.442Z,28.52
2022-08-07T08:42:25.850Z,28.62
2022-08-07T08:44:58.381Z,28.69
2022-08-07T08:47:31.572Z,28.78
2022-08-07T08:50:35.094Z,28.92
2022-08-07T08:53:22.707Z,28.92
2022-08-07T08:55:59.515Z,29.02
2022-08-07T08:58:36.367Z,29.09
2022-08-07T09:01:15.798Z,29.19
2022-08-07T09:04:13.439Z,29.20
2022-08-07T09:07:16.842Z,29.43
2022-08-07T09:10:11.643Z,29.49
2022-08-07T09:13:37.580Z,29.59
2022-08-07T09:16:31.041Z,29.87
2022-08-07T09:19:50.577Z,29.96
2022-08-07T09:24:33.578Z,30.03
2022-08-07T09:25:17.614Z,29.97
2022-08-07T09:28:01.667Z,30.07
2022-08-07T09:30:46.284Z,30.32
2022-08-07T09:33:41.231Z,30.21
2022-08-07T09:36:15.335Z,30.37
2022-08-07T09:38:50.270Z,30.37
2022-08-07T09:41:58.984Z,30.21
2022-08-07T09:47:25.785Z,30.22
2022-08-07T09:47:59.101Z,30.33
2022-08-07T09:50:34.935Z,30.48
2022-08-07T09:53:12.489Z,30.53
2022-08-07T09:56:04.586Z,30.65
2022-08-07T09:58:34.804Z,30.69
2022-08-07T10:01:14.995Z,30.77
2022-08-07T10:04:39.339Z,30.88
2022-08-07T10:07:52.669Z,31.20
2022-08-07T10:11:00.138Z,31.35
2022-08-07T10:13:55.588Z,31.34
2022-08-07T10:16:36.567Z,31.35
2022-08-07T10:19:37.676Z,31.14
2022-08-07T10:23:00.657Z,31.11
2022-08-07T10:25:56.138Z,31.14
2022-08-07T10:28:35.349Z,31.21
2022-08-07T10:31:12.177Z,31.28
2022-08-07T10:34:05.888Z,31.50
2022-08-07T10:36:59.452Z,31.62
2022-08-07T10:40:08.730Z,31.43
2022-08-07T10:42:47.203Z,31.59
2022-08-07T10:45:48.044Z,31.62
2022-08-07T10:48:48.986Z,31.58
2022-08-07T10:51:39.468Z,31.57
2022-08-07T10:54:17.402Z,31.57
2022-08-07T10:57:00.224Z,31.43
2022-08-07T10:59:47.301Z,31.44
2022-08-07T11:02:49.190Z,31.55
2022-08-07T11:05:51.052Z,31.60
2022-08-07T11:08:49.397Z,31.72
2022-08-07T11:11:31.027Z,31.67
2022-08-07T11:14:45.668Z,31.84
2022-08-07T11:17:46.405Z,32.02
2022-08-07T11:20:31.263Z,32.22
2022-08-07T11:23:03.629Z,32.14
2022-08-07T11:25:50.332Z,32.17
2022-08-07T11:28:26.850Z,32.26
2022-08-07T11:31:12.421Z,32.36
2022-08-07T11:34:00.786Z,32.51
2022-08-07T11:36:43.766Z,32.36
2022-08-07T11:39:39.810Z,32.41
2022-08-07T11:42:29.554Z,32.63
2022-08-07T11:45:12.331Z,32.40
2022-08-07T11:47:56.132Z,32.42
2022-08-07T11:50:35.167Z,32.42
2022-08-07T11:53:01.806Z,32.43
2022-08-07T11:56:25.585Z,32.46
2022-08-07T11:59:00.951Z,32.40
2022-08-07T12:01:59.712Z,32.34
2022-08-07T12:04:46.373Z,32.29
2022-08-07T12:07:27.523Z,32.25
2022-08-07T12:10:02.128Z,32.22
2022-08-07T12:12:47.931Z,32.21
2022-08-07T12:16:05.293Z,32.26
2022-08-07T12:18:45.876Z,32.12
2022-08-07T12:21:56.063Z,32.20
2022-08-07T12:24:37.296Z,32.31
2022-08-07T12:27:15.922Z,32.43
2022-08-07T12:29:54.044Z,32.26
2022-08-07T12:32:45.266Z,32.15
2022-08-07T12:35:17.554Z,32.14
2022-08-07T12:38:08.976Z,32.14
2022-08-07T12:40:48.570Z,32.18
2022-08-07T12:44:02.888Z,32.25
2022-08-07T12:46:15.871Z,32.46
2022-08-07T12:49:09.990Z,32.53
2022-08-07T12:52:12.260Z,32.50
2022-08-07T12:54:59.035Z,32.64
2022-08-07T12:57:38.918Z,32.84
2022-08-07T13:00:34.485Z,33.04
2022-08-07T13:03:10.888Z,32.94
2022-08-07T13:06:21.687Z,33.16
2022-08-07T13:10:10.920Z,33.30
2022-08-07T13:12:25.581Z,33.41
2022-08-07T13:15:11.120Z,33.67
2022-08-07T13:18:26.525Z,33.80
2022-08-07T13:21:12.265Z,33.83
2022-08-07T13:24:05.431Z,33.77
2022-08-07T13:26:34.824Z,33.83
2022-08-07T13:29:10.499Z,34.09
2022-08-07T13:31:57.460Z,33.95
2022-08-07T13:34:44.859Z,33.71
2022-08-07T13:37:24.452Z,33.60
2022-08-07T13:40:35.645Z,33.49
2022-08-07T13:43:06.778Z,33.10
2022-08-07T13:46:12.830Z,33.08
2022-08-07T13:48:34.569Z,32.94
2022-08-07T13:51:20.490Z,32.78
2022-08-07T13:54:07.551Z,32.57
2022-08-07T13:56:41.148Z,32.56
2022-08-07T13:59:27.082Z,32.30
2022-08-07T14:02:10.114Z,32.17
2022-08-07T14:04:50.285Z,32.20
2022-08-07T14:07:27.944Z,32.22
2022-08-07T14:10:02.722Z,32.28
2022-08-07T14:12:54.923Z,32.30
2022-08-07T14:15:31.885Z,32.42
2022-08-07T14:18:29.101Z,33.01
2022-08-07T14:21:21.043Z,33.54
2022-08-07T14:24:03.660Z,33.18
2022-08-07T14:26:40.858Z,33.40
2022-08-07T14:30:04.985Z,33.90
2022-08-07T14:32:10.606Z,34.20
2022-08-07T14:34:47.264Z,33.87
2022-08-07T14:37:18.206Z,34.40
2022-08-07T14:40:17.437Z,34.70
2022-08-07T14:45:47.091Z,35.11
2022-08-07T14:48:19.891Z,35.14
2022-08-07T14:51:00.164Z,35.32
2022-08-07T14:54:03.575Z,35.63
2022-08-07T14:56:29.986Z,35.88
2022-08-07T14:59:02.719Z,36.00
2022-08-07T15:01:42.764Z,36.12
2022-08-07T15:04:21.901Z,36.37
2022-08-07T15:06:52.779Z,36.60
2022-08-07T15:09:57.275Z,36.70
2022-08-07T15:12:30.487Z,36.78
2022-08-07T15:15:21.320Z,36.83
2022-08-07T15:17:56.928Z,36.65
2022-08-07T15:20:54.600Z,35.89
2022-08-07T15:26:23.045Z,36.02
2022-08-07T15:30:04.384Z,35.97
2022-08-07T15:32:02.023Z,36.10
2022-08-07T15:34:50.277Z,36.04
2022-08-07T15:37:29.242Z,36.02
2022-08-07T15:43:33.151Z,35.91
2022-08-07T15:46:31.473Z,35.83
2022-08-07T15:49:16.924Z,36.00
2022-08-07T15:54:34.121Z,35.28
2022-08-07T15:57:03.070Z,35.24
2022-08-07T15:59:40.032Z,34.65
2022-08-07T16:02:21.332Z,34.13
2022-08-07T16:04:57.826Z,33.60
2022-08-07T16:08:32.925Z,33.42
2022-08-07T16:10:21.983Z,32.66
2022-08-07T16:13:17.514Z,32.23
2022-08-07T16:16:47.791Z,32.17
2022-08-07T16:19:16.038Z,32.16
2022-08-07T16:22:04.955Z,32.10
2022-08-07T16:24:52.549Z,30.93
2022-08-07T16:27:19.544Z,30.26
2022-08-07T16:30:10.657Z,29.92
2022-08-07T16:32:54.897Z,29.62
2022-08-07T16:35:50.347Z,29.37
2022-08-07T16:38:44.439Z,29.09
2022-08-07T16:41:11.981Z,28.95
2022-08-07T16:44:06.017Z,28.91
2022-08-07T16:47:16.568Z,29.26
2022-08-07T16:50:29.366Z,29.10
2022-08-07T16:53:14.805Z,28.84
2022-08-07T16:55:49.346Z,28.73
2022-08-07T16:58:21.924Z,28.42
2022-08-07T17:01:08.179Z,28.20
2022-08-07T17:03:59.498Z,27.95
2022-08-07T17:06:50.209Z,27.81
2022-08-07T17:10:06.126Z,27.72
2022-08-07T17:12:55.267Z,27.62
2022-08-07T17:15:44.594Z,27.56
2022-08-07T17:18:28.224Z,27.48
2022-08-07T17:20:55.140Z,27.36
2022-08-07T17:23:32.547Z,27.27
2022-08-07T17:26:06.026Z,27.17
2022-08-07T17:30:12.672Z,27.13
2022-08-07T17:32:06.207Z,27.07
2022-08-07T17:34:57.245Z,27.03
2022-08-07T17:38:09.297Z,26.98
2022-08-07T17:40:30.705Z,26.98
2022-08-07T17:43:17.780Z,26.88
2022-08-07T17:45:58.966Z,26.86
2022-08-07T17:48:31.982Z,26.73
2022-08-07T17:51:07.844Z,26.63
2022-08-07T17:54:00.151Z,26.58
2022-08-07T17:56:49.377Z,26.54
2022-08-07T17:59:57.641Z,26.37
2022-08-07T18:02:53.999Z,26.28
2022-08-07T18:05:26.059Z,26.17
2022-08-07T18:08:31.188Z,26.18
2022-08-07T18:12:07.487Z,26.12
2022-08-07T18:14:01.626Z,26.05
2022-08-07T18:16:58.047Z,25.98
2022-08-07T18:21:08.365Z,25.92
2022-08-07T18:22:27.545Z,25.82
2022-08-07T18:25:18.858Z,25.73
2022-08-07T18:27:57.398Z,25.69
2022-08-07T18:30:32.976Z,25.71
2022-08-07T18:33:11.013Z,25.79
2022-08-07T18:35:53.627Z,25.79
2022-08-07T18:38:56.529Z,25.75
2022-08-07T18:41:44.697Z,25.75
2022-08-07T18:44:15.621Z,25.68
2022-08-07T18:47:01.794Z,25.56
2022-08-07T18:50:19.570Z,25.46
2022-08-07T18:52:40.924Z,25.40
2022-08-07T18:55:40.646Z,25.40
2022-08-07T18:58:19.844Z,25.48
2022-08-07T19:01:02.506Z,25.42
2022-08-07T19:03:49.634Z,25.33
2022-08-07T19:06:21.777Z,25.26
2022-08-07T19:09:09.318Z,25.14
2022-08-07T19:12:08.038Z,25.10
2022-08-07T19:14:42.411Z,25.04
2022-08-07T19:17:55.799Z,25.01
2022-08-07T19:20:28.895Z,24.92
2022-08-07T19:23:02.008Z,24.90
2022-08-07T19:26:22.682Z,24.89
2022-08-07T19:30:54.736Z,24.80
2022-08-07T19:31:59.794Z,24.71
2022-08-07T19:34:32.705Z,24.62
2022-08-07T19:37:10.193Z,24.61
2022-08-07T19:39:57.224Z,24.62
2022-08-07T19:42:30.328Z,24.67
2022-08-07T19:45:08.685Z,24.61
2022-08-07T19:47:42.003Z,24.42
2022-08-07T19:50:41.093Z,24.32
2022-08-07T19:52:58.384Z,24.20
2022-08-07T19:55:57.563Z,24.16
2022-08-07T19:58:15.549Z,24.08
2022-08-07T20:00:55.251Z,24.06
2022-08-07T20:03:34.505Z,24.02
2022-08-07T20:06:04.442Z,23.98
2022-08-07T20:08:34.193Z,23.85
2022-08-07T20:11:03.676Z,23.74
2022-08-07T20:13:43.727Z,23.75
2022-08-07T20:16:15.720Z,23.68
2022-08-07T20:18:59.472Z,23.68
2022-08-07T20:21:29.182Z,23.72
2022-08-07T20:24:14.838Z,23.70
2022-08-07T20:26:50.200Z,23.74
2022-08-07T20:29:49.187Z,23.69
2022-08-07T20:32:11.298Z,23.63
2022-08-07T20:34:51.569Z,23.70
2022-08-07T20:37:23.340Z,23.67
2022-08-07T20:40:02.080Z,23.65
2022-08-07T20:42:32.470Z,23.59
2022-08-07T20:45:01.276Z,23.60
2022-08-07T20:47:41.909Z,23.63
2022-08-07T20:50:20.275Z,23.64
2022-08-07T20:52:51.972Z,23.64
2022-08-07T20:55:23.478Z,23.64
2022-08-07T20:58:03.393Z,23.60
2022-08-07T21:00:42.806Z,23.60
2022-08-07T21:03:12.104Z,23.54
2022-08-07T21:05:52.694Z,23.47
2022-08-07T21:08:37.580Z,23.39
2022-08-07T21:11:10.809Z,23.37
2022-08-07T21:13:57.446Z,23.32
2022-08-07T21:16:33.352Z,23.31
2022-08-07T21:19:00.305Z,23.21
2022-08-07T21:21:30.134Z,23.16
2022-08-07T21:24:00.013Z,23.09
2022-08-07T21:26:31.453Z,23.00
2022-08-07T21:29:05.380Z,23.00
2022-08-07T21:32:42.425Z,23.01
2022-08-07T21:34:32.578Z,23.07
2022-08-07T21:37:19.417Z,23.05
2022-08-07T21:39:59.679Z,23.01
2022-08-07T21:42:48.544Z,23.03
2022-08-07T21:46:08.812Z,23.08
2022-08-07T21:48:28.501Z,23.10
2022-08-07T21:51:19.751Z,23.09
2022-08-07T21:53:54.053Z,23.09
2022-08-07T21:56:47.741Z,23.06
2022-08-07T21:59:21.974Z,23.01
2022-08-07T22:02:14.837Z,22.95
2022-08-07T22:04:51.425Z,22.95
2022-08-07T22:07:48.777Z,22.98
2022-08-07T22:10:21.008Z,23.05
2022-08-07T22:12:54.012Z,23.05
2022-08-07T22:16:43.805Z,23.02
2022-08-07T22:18:14.378Z,22.96
2022-08-07T22:20:54.645Z,22.96
2022-08-07T22:23:42.775Z,22.93
2022-08-07T22:26:13.631Z,22.89
2022-08-07T22:28:48.562Z,22.86
2022-08-07T22:31:56.456Z,22.86
2022-08-07T22:34:35.484Z,22.84
2022-08-07T22:37:05.411Z,22.82
2022-08-07T22:39:52.661Z,22.84
2022-08-07T22:42:25.878Z,22.84
2022-08-07T22:44:58.279Z,22.82
2022-08-07T22:47:28.610Z,22.82
2022-08-07T22:50:20.637Z,22.83
2022-08-07T22:52:58.427Z,22.82
2022-08-07T22:55:37.277Z,22.83
2022-08-07T22:58:09.863Z,22.82
2022-08-07T23:00:43.440Z,22.80
2022-08-07T23:03:18.374Z,22.79
2022-08-07T23:06:09.991Z,22.77
2022-08-07T23:08:46.829Z,22.69
2022-08-07T23:11:28.906Z,22.69
2022-08-07T23:14:14.627Z,22.74
2022-08-07T23:16:54.561Z,22.68
2022-08-07T23:19:51.195Z,22.67
2022-08-07T23:22:37.064Z,22.72
2022-08-07T23:25:12.501Z,22.74
2022-08-07T23:28:21.549Z,22.75
2022-08-07T23:30:38.106Z,22.75
2022-08-07T23:34:23.629Z,22.69
2022-08-07T23:36:01.169Z,22.69
2022-08-07T23:38:57.020Z,22.67
2022-08-07T23:41:47.513Z,22.67
2022-08-07T23:44:33.517Z,22.65
2022-08-07T23:47:06.784Z,22.63
2022-08-07T23:49:52.801Z,22.59
2022-08-07T23:52:59.666Z,22.58
2022-08-07T23:55:52.962Z,22.56
2022-08-07T23:58:21.131Z,22.50
